Time;durP1;ratioP1;P1;durP2;ratioP2;P2;SDS_P1;SDS_P2;PMS_P1;PMS_P2;Temp;Humidity;BMP_temperature;BMP_pressure;BME280_temperature;BME280_humidity;BME280_pressure;Samples;Min_cycle;Max_cycle;Signal;HPM_P1;HPM_P2
2024/01/31 00:03:02;;;;;;;73.40;40.40;;;;;;;2.48;65.20;100561.28;231585;197;138621;-60
2024/01/31 00:08:05;;;;;;;70.50;39.40;;;;;;;2.44;65.37;100560.08;231496;205;142823;-60
2024/01/31 00:13:08;;;;;;;67.50;38.20;;;;;;;2.39;65.56;100557.13;231578;198;153118;-60
2024/01/31 00:18:12;;;;;;;66.40;37.50;;;;;;;2.39;65.43;100558.17;231387;198;138723;-59
2024/01/31 00:23:15;;;;;;;61.00;33.50;;;;;;;2.44;65.19;100564.63;231423;198;142104;-61
2024/01/31 00:28:18;;;;;;;48.10;25.80;;;;;;;2.54;64.55;100565.28;231625;199;154601;-61
2024/01/31 00:33:21;;;;;;;50.90;27.60;;;;;;;2.70;63.93;100566.78;231520;205;138261;-61
2024/01/31 00:38:24;;;;;;;46.80;24.90;;;;;;;2.78;63.45;100568.13;231593;197;138203;-59
2024/01/31 00:43:28;;;;;;;42.60;23.30;;;;;;;2.92;62.84;100565.27;231553;198;154494;-58
2024/01/31 00:48:32;;;;;;;42.40;22.90;;;;;;;3.05;62.24;100557.63;231634;203;138165;-60
2024/01/31 00:53:35;;;;;;;44.00;23.20;;;;;;;3.15;62.18;100562.46;231543;198;138247;-60
2024/01/31 00:58:39;;;;;;;36.00;20.30;;;;;;;3.16;61.55;100557.73;231525;206;153995;-60
2024/01/31 01:03:43;;;;;;;39.40;22.30;;;;;;;3.25;61.19;100553.63;231576;202;138454;-59
2024/01/31 01:08:47;;;;;;;37.80;20.80;;;;;;;3.24;61.33;100554.15;231594;205;138272;-61
2024/01/31 01:13:52;;;;;;;33.10;19.20;;;;;;;3.21;61.01;100555.58;231613;205;153293;-61
2024/01/31 01:18:55;;;;;;;33.20;18.70;;;;;;;3.25;60.67;100560.81;231635;202;138636;-60
2024/01/31 01:23:58;;;;;;;32.30;18.00;;;;;;;3.30;60.45;100565.51;231757;198;138325;-60
2024/01/31 01:29:02;;;;;;;33.20;17.80;;;;;;;3.35;60.18;100556.70;231558;202;153229;-60
2024/01/31 01:34:05;;;;;;;33.30;19.30;;;;;;;3.38;59.90;100549.83;231637;198;139100;-60
2024/01/31 01:39:09;;;;;;;34.40;18.30;;;;;;;3.36;59.71;100547.73;231629;202;138653;-61
2024/01/31 01:44:15;;;;;;;35.60;18.30;;;;;;;3.43;59.59;100548.73;231570;206;156622;-60
2024/01/31 01:49:18;;;;;;;34.70;18.50;;;;;;;3.44;59.35;100546.61;231658;205;141050;-61
2024/01/31 01:54:22;;;;;;;36.20;19.50;;;;;;;3.43;59.32;100540.50;231672;203;138777;-59
2024/01/31 01:59:25;;;;;;;32.00;19.40;;;;;;;3.40;59.28;100540.16;231751;198;153079;-61
2024/01/31 02:04:29;;;;;;;37.00;19.70;;;;;;;3.33;59.33;100539.18;231547;198;139400;-59
2024/01/31 02:09:33;;;;;;;37.90;19.90;;;;;;;3.35;59.36;100532.14;231672;198;137408;-60
2024/01/31 02:14:36;;;;;;;38.70;20.70;;;;;;;3.41;59.17;100536.83;231641;205;153311;-61
2024/01/31 02:19:39;;;;;;;36.80;20.00;;;;;;;3.40;59.19;100538.42;231638;197;138324;-60
2024/01/31 02:24:42;;;;;;;37.90;20.30;;;;;;;3.38;59.23;100538.61;231746;198;138259;-60
2024/01/31 02:29:46;;;;;;;38.60;20.10;;;;;;;3.45;59.01;100531.01;231632;198;152750;-60
2024/01/31 02:34:49;;;;;;;38.40;20.40;;;;;;;3.47;58.83;100526.95;231537;199;138449;-60
2024/01/31 02:39:52;;;;;;;36.10;20.70;;;;;;;3.44;58.69;100520.14;231667;197;138891;-60
2024/01/31 02:44:55;;;;;;;31.20;18.80;;;;;;;3.40;58.63;100516.14;231560;199;153200;-61
2024/01/31 02:49:59;;;;;;;38.80;19.40;;;;;;;3.40;58.70;100518.59;231493;206;138230;-60
2024/01/31 02:55:04;;;;;;;34.90;19.10;;;;;;;3.37;58.58;100517.91;231772;205;138879;-60
2024/01/31 03:00:11;;;;;;;32.10;18.40;;;;;;;3.36;58.59;100506.35;231543;198;153321;-59
2024/01/31 03:05:15;;;;;;;36.40;20.80;;;;;;;3.26;58.74;100506.61;231530;203;137967;-59
2024/01/31 03:10:18;;;;;;;37.70;21.10;;;;;;;3.21;59.03;100503.34;231700;198;138141;-58
2024/01/31 03:15:22;;;;;;;36.70;20.70;;;;;;;3.17;59.07;100507.39;231591;197;153885;-59
2024/01/31 03:20:25;;;;;;;31.50;17.90;;;;;;;3.15;59.17;100507.75;231599;197;138537;-59
2024/01/31 03:25:28;;;;;;;35.90;19.30;;;;;;;3.13;59.07;100508.64;231566;197;137956;-59
2024/01/31 03:30:31;;;;;;;34.70;18.50;;;;;;;3.04;59.25;100512.39;231742;198;153290;-60
2024/01/31 03:35:35;;;;;;;29.30;16.60;;;;;;;3.02;59.41;100512.06;231594;203;138365;-60
2024/01/31 03:40:38;;;;;;;29.50;16.30;;;;;;;2.97;59.54;100514.73;231704;198;138749;-60
2024/01/31 03:45:41;;;;;;;28.20;16.70;;;;;;;2.97;59.59;100510.70;231650;198;154217;-59
2024/01/31 03:50:45;;;;;;;28.80;16.30;;;;;;;2.96;59.51;100510.89;231659;205;139645;-60
2024/01/31 03:55:48;;;;;;;25.60;15.70;;;;;;;2.94;59.71;100515.98;231681;203;140137;-59
2024/01/31 04:00:51;;;;;;;28.20;16.20;;;;;;;2.93;59.73;100518.63;231803;205;153351;-60
2024/01/31 04:05:55;;;;;;;29.60;16.20;;;;;;;2.95;59.74;100514.40;231540;198;138695;-60
2024/01/31 04:10:58;;;;;;;26.60;16.20;;;;;;;2.99;59.66;100517.01;231601;199;140123;-61
2024/01/31 04:16:02;;;;;;;28.30;17.10;;;;;;;2.98;59.72;100515.77;231570;199;154084;-61
2024/01/31 04:21:06;;;;;;;28.10;16.80;;;;;;;2.97;59.63;100517.89;231655;198;140445;-60
2024/01/31 04:26:09;;;;;;;31.80;16.50;;;;;;;2.97;59.75;100519.47;231614;199;138647;-60
2024/01/31 04:31:15;;;;;;;29.60;16.80;;;;;;;2.96;59.68;100520.88;231771;198;153056;-60
2024/01/31 04:36:19;;;;;;;26.50;16.20;;;;;;;2.94;59.80;100515.80;231729;203;138856;-60
2024/01/31 04:41:22;;;;;;;30.30;16.70;;;;;;;2.98;59.95;100518.40;231690;199;139988;-61
2024/01/31 04:46:25;;;;;;;104.20;66.90;;;;;;;3.15;61.12;100517.22;231631;198;153068;-60
2024/01/31 04:51:28;;;;;;;33.40;19.70;;;;;;;3.23;59.95;100517.52;231637;198;140826;-59
2024/01/31 04:56:31;;;;;;;164.40;111.70;;;;;;;3.16;59.76;100516.70;231745;197;137634;-60
2024/01/31 05:01:35;;;;;;;33.20;20.50;;;;;;;3.14;59.98;100524.08;231624;199;153167;-60
2024/01/31 05:06:38;;;;;;;30.20;17.90;;;;;;;3.11;59.77;100528.30;231800;203;138025;-61
2024/01/31 05:11:41;;;;;;;30.70;16.00;;;;;;;3.05;59.96;100530.28;231621;205;138337;-60
2024/01/31 05:16:44;;;;;;;27.70;15.70;;;;;;;3.00;60.13;100535.21;231587;198;153191;-61
2024/01/31 05:21:49;;;;;;;25.20;15.60;;;;;;;3.01;60.19;100535.57;231648;198;138687;-60
2024/01/31 05:26:52;;;;;;;26.70;16.30;;;;;;;3.05;60.19;100538.33;231734;204;139015;-60
2024/01/31 05:31:55;;;;;;;24.30;15.90;;;;;;;3.04;60.26;100540.09;231820;204;153079;-59
2024/01/31 05:36:58;;;;;;;25.40;16.20;;;;;;;3.10;60.18;100535.31;231776;198;138807;-60
2024/01/31 05:42:02;;;;;;;33.70;19.90;;;;;;;3.20;61.08;100532.80;231673;198;138553;-60
2024/01/31 05:47:05;;;;;;;28.20;17.10;;;;;;;3.30;60.48;100532.54;231603;198;153640;-61
2024/01/31 05:52:09;;;;;;;30.80;17.40;;;;;;;3.26;60.08;100534.50;231669;197;140552;-60
2024/01/31 05:57:20;;;;;;;30.80;18.00;;;;;;;3.31;60.23;100534.10;229318;212;734360;-59
2024/01/31 06:02:23;;;;;;;27.50;16.80;;;;;;;3.33;60.07;100535.67;230929;202;136915;-59
2024/01/31 06:07:26;;;;;;;28.90;16.90;;;;;;;3.31;60.14;100541.83;231025;202;136991;-58
2024/01/31 06:12:29;;;;;;;23.70;15.10;;;;;;;3.31;60.05;100544.63;231138;201;147858;-59
2024/01/31 06:17:33;;;;;;;25.60;16.20;;;;;;;3.27;60.27;100549.39;230948;202;136690;-59
2024/01/31 06:22:36;;;;;;;26.90;17.40;;;;;;;3.29;60.31;100543.42;231526;199;136617;-58
2024/01/31 06:27:39;;;;;;;27.90;16.30;;;;;;;3.27;60.57;100551.16;231563;206;148319;-59
2024/01/31 06:32:47;;;;;;;26.40;17.10;;;;;;;3.23;60.64;100559.23;231644;199;136585;-60
2024/01/31 06:37:51;;;;;;;27.90;17.70;;;;;;;3.20;60.75;100564.00;231666;199;137063;-59
2024/01/31 06:42:54;;;;;;;30.00;18.30;;;;;;;3.18;60.76;100564.55;231622;199;149067;-60
2024/01/31 06:47:57;;;;;;;31.70;18.70;;;;;;;3.27;60.79;100565.00;231866;204;137178;-59
2024/01/31 06:53:01;;;;;;;30.00;18.60;;;;;;;3.36;60.61;100569.33;231744;198;136791;-60
2024/01/31 06:58:06;;;;;;;31.70;18.30;;;;;;;3.40;60.60;100571.39;231844;204;151498;-59
2024/01/31 07:03:11;;;;;;;29.40;18.50;;;;;;;3.47;60.54;100569.05;231732;205;136366;-59
2024/01/31 07:08:14;;;;;;;29.20;18.60;;;;;;;3.58;60.29;100567.55;231890;198;136597;-60
2024/01/31 07:13:18;;;;;;;32.80;19.10;;;;;;;3.63;60.17;100572.95;231888;197;149600;-60
2024/01/31 07:18:21;;;;;;;30.30;18.00;;;;;;;3.71;60.21;100577.98;231876;202;139673;-59
2024/01/31 07:23:25;;;;;;;31.10;18.80;;;;;;;3.76;59.98;100571.94;231743;205;137570;-58
2024/01/31 07:28:29;;;;;;;28.90;18.30;;;;;;;3.83;59.89;100571.35;231719;198;149561;-59
2024/01/31 07:33:34;;;;;;;28.50;17.70;;;;;;;3.85;59.82;100576.09;231740;205;137239;-58
2024/01/31 07:38:45;;;;;;;27.40;16.20;;;;;;;3.89;59.95;100575.69;231862;205;137680;-59
2024/01/31 07:43:48;;;;;;;30.60;16.70;;;;;;;3.94;59.92;100578.97;231636;198;149770;-59
2024/01/31 07:48:51;;;;;;;24.90;16.10;;;;;;;4.04;59.92;100580.62;231865;198;138138;-59
2024/01/31 07:53:54;;;;;;;25.30;16.60;;;;;;;4.17;59.69;100574.87;231882;203;137077;-58
2024/01/31 07:58:57;;;;;;;24.30;16.30;;;;;;;4.31;59.63;100570.48;231615;202;150687;-59
2024/01/31 08:04:01;;;;;;;29.50;18.40;;;;;;;4.40;59.44;100574.08;231756;198;137633;-60
2024/01/31 08:09:04;;;;;;;30.10;17.70;;;;;;;4.44;59.34;100582.27;231703;198;136779;-55
2024/01/31 08:14:21;;;;;;;28.00;17.30;;;;;;;4.51;59.30;100582.20;231775;198;149683;-58
2024/01/31 08:19:24;;;;;;;26.40;16.70;;;;;;;4.58;58.91;100584.21;231716;202;138337;-58
2024/01/31 08:24:27;;;;;;;25.80;17.30;;;;;;;4.58;58.86;100586.15;231870;198;137285;-59
2024/01/31 08:29:31;;;;;;;27.40;17.70;;;;;;;4.58;58.79;100584.04;231640;198;149398;-58
2024/01/31 08:34:34;;;;;;;30.10;17.60;;;;;;;4.61;58.93;100578.91;231686;202;136769;-59
2024/01/31 08:39:37;;;;;;;30.50;17.90;;;;;;;4.61;59.09;100581.19;231675;197;138951;-59
2024/01/31 08:44:40;;;;;;;28.30;18.30;;;;;;;4.63;59.06;100585.56;231606;198;149822;-59
2024/01/31 08:49:43;;;;;;;33.50;18.70;;;;;;;4.65;59.20;100584.64;231673;202;138851;-59
2024/01/31 08:54:47;;;;;;;29.00;17.70;;;;;;;4.66;59.17;100593.96;231767;205;137298;-58
2024/01/31 08:59:51;;;;;;;33.40;19.40;;;;;;;4.65;59.22;100593.27;231688;198;149885;-58
2024/01/31 09:04:54;;;;;;;34.40;19.80;;;;;;;4.64;59.32;100596.44;231763;202;137163;-59
2024/01/31 09:09:57;;;;;;;30.70;18.80;;;;;;;4.70;59.19;100593.04;231704;198;137783;-58
2024/01/31 09:15:01;;;;;;;30.80;20.40;;;;;;;4.67;59.17;100594.13;231696;198;149577;-59
2024/01/31 09:20:06;;;;;;;34.50;20.50;;;;;;;4.71;59.43;100594.23;232132;201;138055;-56
2024/01/31 09:25:10;;;;;;;37.50;20.30;;;;;;;4.73;59.51;100591.57;232273;204;137559;-57
2024/01/31 09:30:14;;;;;;;34.60;19.50;;;;;;;4.78;59.59;100592.04;231978;204;149622;-56
2024/01/31 09:35:18;;;;;;;32.80;19.10;;;;;;;4.83;59.84;100591.27;232104;197;137136;-57
2024/01/31 09:40:23;;;;;;;32.10;18.50;;;;;;;4.91;59.55;100596.08;232097;201;137076;-58
2024/01/31 09:45:28;;;;;;;30.00;18.40;;;;;;;4.91;59.49;100595.02;232122;200;149686;-58
2024/01/31 09:50:32;;;;;;;33.70;18.50;;;;;;;4.95;59.46;100581.25;232171;203;136438;-58
2024/01/31 09:55:35;;;;;;;30.40;18.00;;;;;;;5.00;59.45;100579.42;232107;203;137822;-57
2024/01/31 10:00:39;;;;;;;37.30;20.50;;;;;;;5.05;59.57;100581.11;232207;201;149587;-57
2024/01/31 10:05:42;;;;;;;29.90;18.90;;;;;;;5.13;59.60;100581.88;232064;196;136929;-56
2024/01/31 10:10:45;;;;;;;32.10;19.40;;;;;;;5.18;59.59;100582.66;232207;196;137432;-56
2024/01/31 10:15:49;;;;;;;29.60;19.00;;;;;;;5.18;59.55;100581.09;232061;204;149705;-56
2024/01/31 10:20:54;;;;;;;29.50;17.60;;;;;;;5.23;59.70;100569.40;232094;204;136758;-56
2024/01/31 10:25:57;;;;;;;30.20;18.30;;;;;;;5.25;59.54;100568.33;232114;201;136851;-56
2024/01/31 10:31:02;;;;;;;32.30;18.90;;;;;;;5.26;59.65;100567.25;232040;198;150554;-57
2024/01/31 10:36:07;;;;;;;28.50;17.90;;;;;;;5.30;59.47;100556.96;231991;204;138266;-58
2024/01/31 10:41:31;;;;;;;29.90;18.70;;;;;;;5.36;59.56;100559.70;232206;200;137419;-56
2024/01/31 10:46:35;;;;;;;24.80;16.50;;;;;;;5.43;59.37;100546.91;232101;203;151511;-56
2024/01/31 10:51:40;;;;;;;27.50;18.10;;;;;;;5.43;59.30;100546.56;232162;203;137212;-56
2024/01/31 10:56:45;;;;;;;31.90;17.30;;;;;;;5.49;59.41;100545.06;232081;202;137384;-57
2024/01/31 11:01:51;;;;;;;27.60;18.00;;;;;;;5.51;59.26;100547.30;232153;204;151693;-57
2024/01/31 11:06:59;;;;;;;32.50;19.10;;;;;;;5.53;59.27;100538.64;232232;204;137693;-57
2024/01/31 11:12:11;;;;;;;34.30;19.70;;;;;;;5.60;59.59;100542.73;232156;200;137526;-57
2024/01/31 11:17:17;;;;;;;32.80;18.70;;;;;;;5.70;59.25;100536.58;232001;203;150431;-56
2024/01/31 11:22:21;;;;;;;30.90;18.70;;;;;;;5.73;59.35;100536.17;232151;203;140358;-56
2024/01/31 11:27:25;;;;;;;32.60;19.10;;;;;;;5.73;59.33;100530.38;232122;200;137151;-57
2024/01/31 11:32:28;;;;;;;33.10;20.20;;;;;;;5.77;59.22;100532.58;232244;200;150568;-59
2024/01/31 11:37:32;;;;;;;236.70;139.30;;;;;;;5.78;59.50;100529.40;232064;204;137838;-57
2024/01/31 11:42:35;;;;;;;35.80;22.20;;;;;;;5.80;59.42;100529.18;231960;200;137262;-57
2024/01/31 11:47:40;;;;;;;36.70;20.10;;;;;;;5.84;59.34;100521.54;232107;204;149342;-58
2024/01/31 11:52:45;;;;;;;33.10;19.40;;;;;;;5.89;59.22;100513.69;232029;200;136680;-58
2024/01/31 11:57:52;;;;;;;32.50;19.90;;;;;;;5.96;59.16;100513.59;231899;204;136554;-57
2024/01/31 12:02:56;;;;;;;28.60;19.10;;;;;;;6.01;59.11;100501.16;232027;197;151596;-58
2024/01/31 12:08:00;;;;;;;32.00;19.20;;;;;;;6.08;58.91;100500.50;232039;204;138399;-58
2024/01/31 12:13:04;;;;;;;29.40;19.10;;;;;;;6.08;58.85;100504.02;232056;204;136942;-57
2024/01/31 12:18:08;;;;;;;28.50;17.70;;;;;;;6.03;59.07;100504.99;231857;200;150442;-58
2024/01/31 12:23:15;;;;;;;28.90;18.40;;;;;;;6.00;59.21;100506.64;231851;200;138466;-58
2024/01/31 12:28:18;;;;;;;29.80;17.90;;;;;;;5.98;59.45;100508.63;232027;204;137833;-57
2024/01/31 12:33:21;;;;;;;29.00;18.30;;;;;;;5.98;59.69;100507.39;232020;202;149917;-58
2024/01/31 12:38:24;;;;;;;29.40;18.00;;;;;;;5.94;59.62;100497.94;232020;197;137562;-57
2024/01/31 12:43:27;;;;;;;29.90;18.40;;;;;;;5.99;59.81;100493.98;232088;204;137289;-57
2024/01/31 12:48:31;;;;;;;25.80;17.80;;;;;;;6.01;59.78;100487.59;232077;201;149637;-56
2024/01/31 12:53:35;;;;;;;25.60;17.60;;;;;;;6.10;59.64;100489.00;231848;197;137498;-58
2024/01/31 12:58:38;;;;;;;26.90;18.30;;;;;;;6.17;59.64;100491.66;232021;200;137877;-58
2024/01/31 13:03:41;;;;;;;27.80;17.80;;;;;;;6.26;59.53;100490.61;232070;204;151440;-58
2024/01/31 13:08:45;;;;;;;30.40;18.20;;;;;;;6.35;59.28;100479.30;232114;200;137341;-56
2024/01/31 13:13:50;;;;;;;32.00;18.40;;;;;;;6.44;59.15;100475.05;232031;203;137278;-57
2024/01/31 13:18:53;;;;;;;30.50;19.60;;;;;;;6.51;58.88;100485.83;232268;204;150008;-58
2024/01/31 13:23:57;;;;;;;28.70;18.40;;;;;;;6.55;58.75;100486.27;231986;200;137917;-57
2024/01/31 13:29:00;;;;;;;30.50;19.20;;;;;;;6.54;58.43;100480.49;231895;197;137889;-58
2024/01/31 13:34:03;;;;;;;26.40;17.80;;;;;;;6.51;58.57;100476.13;232035;204;151464;-57
2024/01/31 13:39:07;;;;;;;28.90;18.30;;;;;;;6.57;58.60;100475.13;232037;197;138156;-57
2024/01/31 13:44:10;;;;;;;27.10;17.80;;;;;;;6.59;58.63;100469.25;232048;204;140417;-57
2024/01/31 13:49:14;;;;;;;26.20;17.50;;;;;;;6.54;58.83;100465.84;232161;204;149641;-58
2024/01/31 13:54:17;;;;;;;31.10;19.50;;;;;;;6.52;58.88;100465.36;231982;204;136894;-57
2024/01/31 13:59:21;;;;;;;30.00;18.30;;;;;;;6.53;58.95;100461.10;232065;200;137264;-57
2024/01/31 14:04:26;;;;;;;33.20;18.40;;;;;;;6.51;58.87;100460.27;232129;200;149362;-57
2024/01/31 14:09:29;;;;;;;32.70;19.40;;;;;;;6.45;59.01;100453.71;232082;200;137270;-58
2024/01/31 14:14:33;;;;;;;32.10;21.00;;;;;;;6.44;58.92;100456.37;232078;197;137342;-56
2024/01/31 14:19:38;;;;;;;28.10;19.40;;;;;;;6.45;59.17;100455.30;232098;197;149499;-58
2024/01/31 14:24:41;;;;;;;34.50;21.30;;;;;;;6.44;59.23;100445.98;232193;204;137456;-58
2024/01/31 14:29:45;;;;;;;28.70;20.50;;;;;;;6.35;59.46;100455.88;232013;201;140100;-58
2024/01/31 14:34:48;;;;;;;32.60;21.90;;;;;;;6.31;59.64;100452.63;231986;202;152717;-59
2024/01/31 14:39:51;;;;;;;34.50;21.60;;;;;;;6.37;59.61;100455.29;231973;201;136814;-59
2024/01/31 14:44:54;;;;;;;32.70;21.10;;;;;;;6.40;59.49;100445.16;232162;201;137280;-59
2024/01/31 14:49:58;;;;;;;34.90;22.30;;;;;;;6.42;59.62;100455.90;232037;204;152695;-59
2024/01/31 14:55:03;;;;;;;36.50;22.30;;;;;;;6.45;59.56;100451.59;232285;203;137955;-58
2024/01/31 15:00:07;;;;;;;43.70;24.90;;;;;;;6.51;59.73;100445.29;232059;203;137118;-59
2024/01/31 15:05:11;;;;;;;37.10;21.80;;;;;;;6.57;59.47;100443.92;232040;204;151194;-57
2024/01/31 15:10:15;;;;;;;32.60;21.00;;;;;;;6.53;59.43;100447.52;231930;198;137375;-57
2024/01/31 15:15:19;;;;;;;36.90;20.90;;;;;;;6.50;59.57;100449.70;231905;204;137009;-58
2024/01/31 15:20:22;;;;;;;38.00;21.70;;;;;;;6.48;59.62;100446.39;231999;204;151510;-60
2024/01/31 15:25:25;;;;;;;30.20;21.00;;;;;;;6.48;59.72;100442.17;231809;202;137758;-58
2024/01/31 15:30:29;;;;;;;36.20;22.70;;;;;;;6.45;59.73;100438.20;232163;200;138241;-60
2024/01/31 15:35:32;;;;;;;36.10;21.50;;;;;;;6.41;59.99;100432.64;231977;204;151688;-59
2024/01/31 15:40:35;;;;;;;36.20;22.00;;;;;;;6.40;60.11;100431.95;231924;201;137220;-60
2024/01/31 15:45:39;;;;;;;37.30;23.20;;;;;;;6.38;60.25;100426.71;231997;203;139138;-59
2024/01/31 15:50:42;;;;;;;35.00;23.10;;;;;;;6.35;60.26;100420.45;231893;200;153019;-60
2024/01/31 15:55:45;;;;;;;37.80;23.70;;;;;;;6.31;60.40;100411.89;232138;196;137170;-60
2024/01/31 16:00:48;;;;;;;38.70;24.40;;;;;;;6.30;60.59;100401.50;232344;203;139979;-62
2024/01/31 16:05:52;;;;;;;37.10;23.80;;;;;;;6.27;60.75;100404.92;232216;200;151095;-60
2024/01/31 16:10:55;;;;;;;37.00;23.30;;;;;;;6.26;60.67;100403.73;232140;200;137100;-59
2024/01/31 16:15:59;;;;;;;37.30;24.10;;;;;;;6.25;60.97;100395.48;232280;196;137762;-60
2024/01/31 16:21:03;;;;;;;39.00;24.00;;;;;;;6.25;61.06;100388.77;232158;203;151953;-61
2024/01/31 16:26:07;;;;;;;42.90;25.30;;;;;;;6.23;61.33;100389.70;232232;199;137798;-61
2024/01/31 16:31:11;;;;;;;37.80;25.20;;;;;;;6.22;61.68;100387.94;232456;200;136640;-61
2024/01/31 16:36:21;;;;;;;42.60;25.90;;;;;;;6.24;61.67;100392.65;232239;203;152125;-60
2024/01/31 16:41:26;;;;;;;41.90;26.60;;;;;;;6.20;61.58;100384.13;232104;203;137573;-61
2024/01/31 16:46:29;;;;;;;45.00;28.30;;;;;;;6.15;61.94;100383.70;232247;204;138543;-61
2024/01/31 16:51:33;;;;;;;43.30;27.70;;;;;;;6.18;62.05;100383.29;232121;200;151494;-61
2024/01/31 16:56:36;;;;;;;43.70;26.90;;;;;;;6.20;62.02;100388.35;232219;203;138051;-61
2024/01/31 17:01:43;;;;;;;44.10;28.30;;;;;;;6.23;62.12;100382.99;232244;200;137956;-60
2024/01/31 17:06:47;;;;;;;40.20;26.50;;;;;;;6.24;62.32;100380.88;232331;203;152013;-62
2024/01/31 17:11:51;;;;;;;43.80;27.90;;;;;;;6.26;62.39;100368.30;232136;197;138294;-61
2024/01/31 17:16:55;;;;;;;42.40;26.90;;;;;;;6.22;62.57;100357.48;232188;201;137590;-61
2024/01/31 17:21:58;;;;;;;44.80;26.60;;;;;;;6.21;62.84;100373.52;232309;203;151355;-61
2024/01/31 17:27:03;;;;;;;44.90;27.60;;;;;;;6.20;62.81;100365.98;232262;203;136994;-61
2024/01/31 17:32:07;;;;;;;44.60;28.50;;;;;;;6.19;62.94;100374.63;232242;203;136885;-61
2024/01/31 17:37:10;;;;;;;47.80;30.20;;;;;;;6.17;62.99;100384.36;232317;196;151638;-61
2024/01/31 17:42:13;;;;;;;48.40;28.80;;;;;;;6.13;63.03;100384.30;232201;203;137795;-61
2024/01/31 17:47:16;;;;;;;49.40;29.50;;;;;;;6.01;63.30;100387.35;232211;203;139727;-60
2024/01/31 17:52:20;;;;;;;53.20;31.30;;;;;;;5.95;63.46;100376.39;232216;203;152574;-61
2024/01/31 17:57:23;;;;;;;50.70;30.00;;;;;;;5.92;63.65;100379.96;232213;203;140249;-60
2024/01/31 18:02:26;;;;;;;51.60;31.00;;;;;;;5.92;63.65;100381.02;232212;197;137789;-60
2024/01/31 18:07:30;;;;;;;51.00;31.80;;;;;;;5.90;63.74;100376.81;232300;204;151319;-59
2024/01/31 18:12:33;;;;;;;53.50;34.10;;;;;;;5.88;63.96;100366.11;232344;200;139802;-60
2024/01/31 18:17:37;;;;;;;46.60;30.90;;;;;;;5.90;64.06;100368.20;232154;201;140979;-61
2024/01/31 18:22:40;;;;;;;47.60;31.50;;;;;;;5.94;64.01;100370.95;232200;203;151851;-60
2024/01/31 18:27:45;;;;;;;45.30;31.20;;;;;;;5.99;63.87;100369.27;232222;203;137936;-59
2024/01/31 18:32:48;;;;;;;195.40;117.20;;;;;;;5.98;63.99;100363.13;232250;196;136842;-55
2024/01/31 18:37:52;;;;;;;57.40;35.80;;;;;;;6.06;64.74;100360.64;232210;204;151744;-61
2024/01/31 18:42:55;;;;;;;49.90;31.70;;;;;;;6.01;64.14;100359.34;232257;203;137685;-61
2024/01/31 18:47:58;;;;;;;53.30;32.10;;;;;;;5.96;64.55;100349.95;232241;203;138742;-61
2024/01/31 18:53:02;;;;;;;49.40;31.90;;;;;;;5.97;64.59;100344.64;232158;200;152567;-60
2024/01/31 18:58:05;;;;;;;56.80;35.90;;;;;;;6.02;65.36;100334.84;232204;203;138087;-60
2024/01/31 19:03:09;;;;;;;55.20;31.50;;;;;;;6.10;65.07;100325.51;232201;203;137097;-61
2024/01/31 19:08:13;;;;;;;53.60;33.10;;;;;;;6.16;64.80;100328.17;232119;203;152138;-60
2024/01/31 19:13:17;;;;;;;49.00;32.40;;;;;;;6.16;64.71;100325.55;232216;199;138708;-62
2024/01/31 19:18:20;;;;;;;49.30;32.30;;;;;;;6.16;64.85;100312.68;232172;200;139201;-61
2024/01/31 19:23:24;;;;;;;223.70;149.60;;;;;;;6.19;64.68;100305.90;232158;200;152396;-61
2024/01/31 19:28:28;;;;;;;56.30;36.50;;;;;;;6.36;65.69;100306.04;232052;199;137255;-59
2024/01/31 19:33:31;;;;;;;54.80;33.20;;;;;;;6.39;64.60;100295.55;232240;196;137601;-60
2024/01/31 19:38:35;;;;;;;50.60;31.20;;;;;;;6.32;64.58;100292.73;232122;203;151287;-60
2024/01/31 19:43:39;;;;;;;53.20;33.10;;;;;;;6.27;64.55;100292.14;232210;203;137006;-61
2024/01/31 19:48:42;;;;;;;53.60;33.10;;;;;;;6.25;64.50;100292.02;232321;200;137591;-60
2024/01/31 19:53:50;;;;;;;49.50;33.10;;;;;;;6.23;64.43;100277.60;232200;200;151468;-61
2024/01/31 19:58:53;;;;;;;51.60;34.60;;;;;;;6.18;64.51;100267.67;232199;203;138091;-61
2024/01/31 20:03:56;;;;;;;49.40;33.00;;;;;;;6.13;64.65;100263.23;232046;201;136715;-60
2024/01/31 20:09:00;;;;;;;135.20;94.90;;;;;;;6.12;64.59;100264.14;232018;204;151232;-61
2024/01/31 20:14:03;;;;;;;64.40;40.40;;;;;;;6.27;65.57;100257.43;231939;203;138074;-57
2024/01/31 20:19:06;;;;;;;62.00;38.20;;;;;;;6.32;64.42;100244.27;232115;197;137208;-56
2024/01/31 20:24:11;;;;;;;66.20;39.90;;;;;;;6.21;64.39;100230.96;232092;200;151934;-55
2024/01/31 20:29:14;;;;;;;61.10;38.50;;;;;;;6.15;64.49;100215.26;231992;204;137609;-62
2024/01/31 20:34:17;;;;;;;63.80;38.90;;;;;;;6.06;64.48;100210.01;232089;197;137989;-62
2024/01/31 20:39:21;;;;;;;60.80;37.50;;;;;;;6.04;64.83;100210.26;232052;200;151233;-61
2024/01/31 20:44:24;;;;;;;66.90;38.80;;;;;;;6.00;65.03;100208.40;232026;204;137661;-61
2024/01/31 20:49:27;;;;;;;695.50;476.00;;;;;;;5.93;65.30;100200.27;231969;204;136793;-57
2024/01/31 20:54:31;;;;;;;67.80;42.20;;;;;;;6.07;66.67;100195.37;232203;203;152221;-60
2024/01/31 20:59:34;;;;;;;60.90;35.80;;;;;;;6.14;65.38;100187.27;232155;200;139536;-59
2024/01/31 21:04:38;;;;;;;60.80;39.40;;;;;;;6.17;65.31;100178.02;232109;197;138866;-61
2024/01/31 21:09:42;;;;;;;67.40;40.60;;;;;;;6.25;65.22;100163.21;232055;204;151530;-60
2024/01/31 21:14:46;;;;;;;62.70;38.70;;;;;;;6.25;65.06;100156.69;232154;203;138123;-60
2024/01/31 21:19:49;;;;;;;61.80;38.30;;;;;;;6.22;65.07;100149.71;232062;200;138193;-61
2024/01/31 21:24:52;;;;;;;58.60;37.50;;;;;;;6.13;65.11;100145.90;232085;197;154638;-60
2024/01/31 21:29:56;;;;;;;66.40;39.40;;;;;;;6.07;65.27;100147.81;232090;200;136738;-60
2024/01/31 21:34:59;;;;;;;63.70;39.90;;;;;;;6.04;65.37;100138.21;232200;200;139288;-60
2024/01/31 21:40:03;;;;;;;62.80;38.90;;;;;;;5.99;65.30;100135.86;232063;203;152380;-60
2024/01/31 21:45:12;;;;;;;65.10;39.30;;;;;;;5.92;65.52;100132.84;232018;204;137123;-59
2024/01/31 21:50:15;;;;;;;61.70;39.20;;;;;;;5.88;65.61;100132.75;232206;203;137121;-60
2024/01/31 21:55:19;;;;;;;65.00;41.30;;;;;;;5.81;65.55;100125.71;232244;202;151367;-60
2024/01/31 22:00:23;;;;;;;65.10;42.20;;;;;;;5.77;65.67;100117.71;232092;204;136971;-60
2024/01/31 22:05:26;;;;;;;72.20;42.60;;;;;;;5.73;65.78;100113.41;232078;200;137513;-60
2024/01/31 22:10:30;;;;;;;68.60;41.30;;;;;;;5.70;65.83;100107.84;232229;201;152129;-60
2024/01/31 22:15:33;;;;;;;66.10;40.10;;;;;;;5.67;66.01;100098.41;232155;204;136679;-59
2024/01/31 22:20:36;;;;;;;71.90;45.10;;;;;;;5.57;66.06;100090.56;232208;200;137500;-60
2024/01/31 22:25:39;;;;;;;99.50;53.10;;;;;;;5.50;66.26;100084.23;232112;204;151380;-59
2024/01/31 22:30:43;;;;;;;121.30;57.40;;;;;;;5.40;66.09;100080.27;232325;201;137590;-60
2024/01/31 22:35:47;;;;;;;210.00;91.10;;;;;;;5.25;66.06;100075.33;232061;200;137431;-60
2024/01/31 22:40:50;;;;;;;102.20;55.10;;;;;;;5.11;66.46;100068.44;231937;197;152349;-60
2024/01/31 22:45:53;;;;;;;127.30;63.80;;;;;;;5.06;66.66;100055.38;232129;204;140570;-60
2024/01/31 22:50:57;;;;;;;136.10;58.30;;;;;;;4.98;66.64;100054.67;232125;204;137625;-60
2024/01/31 22:56:00;;;;;;;141.40;63.10;;;;;;;4.86;66.61;100061.08;232200;203;152291;-60
2024/01/31 23:01:04;;;;;;;137.50;62.10;;;;;;;4.74;66.44;100054.52;232198;204;138275;-60